Airfield :
LOGIN :

Register | Disclaimer

   EN    FR    IT 

 










Legend :    VFR   Marginal VFR   IFR   Intensive IFR   Very Intensive IFR
Visi :
Ceiling :
>= 8 km
>= 3000ft
5 to 8 km
1000 to 3000 ft
1500m to 5 km
500 to 1000 ft
800 to 1500m
200 to 500 ft
< 800m
< 200 ft
Symbols :   Thunderstorms  Fog  Heavy snow  Heavy precipitations  Wind > 20 kt
SIGMETs :     Misc.  Thunderstorms  Icing  Turbulence  Mountain Waves  Volcanic Ashes







- Airport Elevation : 1411 ft
- IATA code : SZG


LOWS - Salzburg

CURRENT METAR :
  • 191750Z 17004KT 130V200 CAVOK 04/M00 Q1021 NOSIG

EXPIRED METARs :
  • 191720Z 16005KT 140V200 CAVOK 04/M00 Q1021 NOSIG
  • 191650Z 16004KT 9999 FEW040 BKN240 04/M00 Q1021 NOSIG
  • 191620Z VRB01KT 9999 FEW040 SCT300 07/00 Q1021 NOSIG
  • 191550Z 33003KT 300V010 9999 FEW040 09/00 Q1021 NOSIG

TAF TAF LOWS
Valid from the 19 at 18:00 until the 20 at 18:00 UTC


191715Z 1918/2018 16005KT 9999 FEW040 BKN250 TX08/2012Z TN00/1924Z
BECMG 1918/1920 26004KT SCT040 BKN070
TEMPO 2000/2008 -SHRA SCT035 BKN050
PROB30
TEMPO 2002/2006 6000 SHRA BKN020
BECMG 2010/2012 34005KT SCT050 SCT300
No reported NOTAMs for that airfield.



MET'MAP, your aeronautical weather chart ! - Copyright ORBIFLY December 2007 - Disclaimer

ORBIFLY MET'MAP TEAM :

Programming & Development : Alexandra Zaïnal
Concept & Development : Baudouin d'Aumeries
Co-Development & Prog : Marc-Olivier Méhu
Technical & hardware support : Manuel Goepfert

Contact : metmap@orbifly.com




SOURCES & CREDITS :

   NOAA